Time;durP1;ratioP1;P1;durP2;ratioP2;P2;SDS_P1;SDS_P2;PMS_P1;PMS_P2;Temp;Humidity;BMP_temperature;BMP_pressure;BME280_temperature;BME280_humidity;BME280_pressure;Samples;Min_cycle;Max_cycle;Signal;HPM_P1;HPM_P2
2020/12/19 00:00:13;;;;;;;18.98;11.10;;;;;;;8.42;69.75;101519.59;5039364;28;20029;-89
2020/12/19 00:02:40;;;;;;;16.92;11.40;;;;;;;8.38;70.08;101512.56;5021869;28;20108;-90
2020/12/19 00:05:06;;;;;;;18.58;12.68;;;;;;;8.39;70.61;101509.91;5042061;28;20104;-88
2020/12/19 00:07:33;;;;;;;20.13;11.50;;;;;;;8.42;70.17;101503.75;5040929;28;20095;-88
2020/12/19 00:10:01;;;;;;;22.45;12.55;;;;;;;8.39;70.08;101499.34;5041638;28;20029;-88
2020/12/19 00:12:27;;;;;;;21.13;14.10;;;;;;;8.30;70.81;101499.34;5039925;28;20057;-90
2020/12/19 00:14:53;;;;;;;20.40;12.93;;;;;;;8.34;71.38;101495.81;5039544;28;20479;-90
2020/12/19 00:17:20;;;;;;;21.35;12.88;;;;;;;8.40;71.06;101484.41;5042332;28;20020;-88
2020/12/19 00:19:46;;;;;;;22.27;13.55;;;;;;;8.29;71.35;101475.56;5039917;28;20021;-83
2020/12/19 00:22:13;;;;;;;21.08;14.02;;;;;;;8.36;71.54;101466.78;5040312;28;20022;-85
2020/12/19 00:24:39;;;;;;;23.25;14.65;;;;;;;8.37;71.03;101474.72;5041392;28;20098;-87
2020/12/19 00:27:10;;;;;;;19.98;13.25;;;;;;;8.41;71.63;101470.28;5039470;28;20028;-87
2020/12/19 00:29:38;;;;;;;22.42;14.80;;;;;;;8.37;71.74;101464.16;5063447;22;20063;-83
2020/12/19 00:32:05;;;;;;;24.95;14.93;;;;;;;8.36;71.91;101462.38;5063484;28;20118;-81
2020/12/19 00:34:31;;;;;;;19.10;13.60;;;;;;;8.42;71.35;101459.75;5064160;28;20032;-81
2020/12/19 00:36:59;;;;;;;23.45;14.90;;;;;;;8.42;71.68;101466.75;5065174;28;20078;-80
2020/12/19 00:39:25;;;;;;;24.38;15.75;;;;;;;8.37;71.62;101474.72;5063460;28;20051;-82
2020/12/19 00:41:52;;;;;;;28.00;15.32;;;;;;;8.46;71.84;101462.38;5062652;28;20039;-81
2020/12/19 00:44:21;;;;;;;24.13;14.43;;;;;;;8.43;72.30;101466.75;5064707;28;20379;-81
2020/12/19 00:46:50;;;;;;;26.42;14.93;;;;;;;8.52;72.06;101462.38;5062444;28;20021;-80
2020/12/19 00:49:17;;;;;;;25.67;14.70;;;;;;;8.47;72.14;101461.53;5064150;28;20543;-82
2020/12/19 00:51:44;;;;;;;25.25;14.30;;;;;;;8.53;71.66;101459.75;5043665;28;20029;-80
2020/12/19 00:54:10;;;;;;;24.23;14.48;;;;;;;8.55;71.70;101449.19;5063340;28;20082;-80
2020/12/19 00:56:37;;;;;;;25.40;15.23;;;;;;;8.54;71.36;101455.34;5065318;28;20028;-82
2020/12/19 00:59:04;;;;;;;26.45;14.45;;;;;;;8.38;72.74;101450.03;5060900;28;20025;-81
2020/12/19 01:01:31;;;;;;;31.45;17.05;;;;;;;8.51;72.03;101439.50;5063905;28;20048;-82
2020/12/19 01:04:00;;;;;;;24.58;15.23;;;;;;;8.50;72.42;101441.28;5060941;28;20368;-81
2020/12/19 01:06:28;;;;;;;25.35;16.48;;;;;;;8.42;72.09;101430.69;5064160;28;20048;-81
2020/12/19 01:08:57;;;;;;;24.25;16.40;;;;;;;8.44;72.18;101430.69;5061843;28;20035;-81
2020/12/19 01:11:25;;;;;;;23.20;14.32;;;;;;;8.37;72.81;101424.53;5062090;28;20048;-82
2020/12/19 01:13:52;;;;;;;25.50;16.10;;;;;;;8.49;71.82;101430.72;5059865;28;20201;-81
2020/12/19 01:16:32;;;;;;;27.55;15.88;;;;;;;8.44;72.24;101422.75;5064990;28;20053;-84
2020/12/19 01:19:04;;;;;;;26.10;16.38;;;;;;;8.43;72.45;101421.00;5061919;28;20496;-79
2020/12/19 01:21:36;;;;;;;24.35;15.50;;;;;;;8.35;73.13;101423.66;5062963;28;20111;-80
2020/12/19 01:24:02;;;;;;;28.17;15.68;;;;;;;8.35;72.40;101423.66;5063739;28;20032;-81
2020/12/19 01:26:29;;;;;;;23.77;15.25;;;;;;;8.37;72.44;101428.94;5063764;28;20048;-81
2020/12/19 01:28:55;;;;;;;27.90;15.15;;;;;;;8.43;72.43;101432.44;5063733;28;20028;-81
2020/12/19 01:31:22;;;;;;;27.38;15.70;;;;;;;8.36;72.66;101430.69;5062174;28;20388;-81
2020/12/19 01:33:50;;;;;;;25.92;14.93;;;;;;;8.38;72.74;101423.63;5064477;28;20380;-81
2020/12/19 01:36:23;;;;;;;27.38;15.68;;;;;;;8.43;72.51;101427.16;5064130;28;20077;-82
2020/12/19 01:38:51;;;;;;;30.60;17.17;;;;;;;8.39;72.34;101428.03;5060905;28;20032;-82
2020/12/19 01:41:17;;;;;;;26.35;14.55;;;;;;;8.38;72.52;101418.34;5062488;28;20115;-81
2020/12/19 01:46:47;;;;;;;22.77;14.88;;;;;;;8.54;71.65;101429.81;5108994;27;20387;-80
2020/12/19 01:49:14;;;;;;;27.23;16.25;;;;;;;8.63;70.99;101430.69;5094336;28;20036;-81
2020/12/19 01:51:41;;;;;;;27.48;16.80;;;;;;;8.51;71.31;101431.56;5099062;28;20023;-82
2020/12/19 01:54:09;;;;;;;26.42;14.55;;;;;;;8.61;71.04;101420.13;5099676;28;20445;-82
2020/12/19 01:56:54;;;;;;;22.92;14.63;;;;;;;8.62;70.71;101426.28;5098094;28;20038;-83
2020/12/19 01:59:22;;;;;;;25.92;14.60;;;;;;;8.56;71.26;101424.50;5098650;22;20907;-83
2020/12/19 02:02:08;;;;;;;24.85;14.07;;;;;;;8.54;71.69;101421.03;5070742;28;20027;-83
2020/12/19 02:04:35;;;;;;;19.70;13.63;;;;;;;8.53;70.54;101421.91;5068407;28;20431;-84
2020/12/19 02:07:05;;;;;;;22.95;14.00;;;;;;;8.50;71.19;101417.50;5070405;28;20057;-83
2020/12/19 02:09:36;;;;;;;24.30;14.80;;;;;;;8.43;71.32;101421.88;5064248;28;20029;-84
2020/12/19 02:12:03;;;;;;;22.98;14.70;;;;;;;8.49;71.04;101412.22;5061423;28;20531;-84
2020/12/19 02:14:30;;;;;;;35.55;15.05;;;;;;;8.43;71.58;101415.72;5058028;28;20025;-84
2020/12/19 02:17:02;;;;;;;26.92;14.85;;;;;;;8.43;71.51;101411.31;5060230;28;20025;-84
2020/12/19 02:19:29;;;;;;;27.23;15.13;;;;;;;8.42;70.93;101408.66;5056604;28;20456;-84
2020/12/19 02:21:56;;;;;;;24.13;15.05;;;;;;;8.40;71.10;101407.81;5060556;28;20116;-85
2020/12/19 02:24:23;;;;;;;25.48;15.73;;;;;;;8.42;70.90;101413.94;5059032;28;20055;-84
2020/12/19 02:26:50;;;;;;;28.70;15.52;;;;;;;8.48;70.70;101408.69;5057204;28;20033;-85
2020/12/19 02:29:17;;;;;;;28.17;15.77;;;;;;;8.44;70.95;101404.28;5056712;28;20068;-83
2020/12/19 02:31:45;;;;;;;21.65;13.65;;;;;;;8.46;71.04;101398.97;5057613;28;20108;-82
2020/12/19 02:34:12;;;;;;;27.27;15.30;;;;;;;8.37;71.30;101398.13;5057136;28;20424;-83
2020/12/19 02:36:39;;;;;;;23.67;15.75;;;;;;;8.40;70.86;101392.84;5044156;28;20396;-84
2020/12/19 02:39:07;;;;;;;24.90;15.52;;;;;;;8.37;70.76;101395.50;5048837;28;20022;-83
2020/12/19 02:41:36;;;;;;;26.00;16.10;;;;;;;8.28;71.40;101387.56;5049856;28;20056;-83
2020/12/19 02:44:03;;;;;;;29.13;15.25;;;;;;;8.28;71.61;101387.56;5060365;28;20021;-84
2020/12/19 02:46:30;;;;;;;22.52;15.00;;;;;;;8.32;71.85;101389.31;5059735;28;20043;-82
2020/12/19 02:48:57;;;;;;;30.83;15.13;;;;;;;8.39;70.71;101383.16;5058175;28;20063;-83
2020/12/19 02:51:23;;;;;;;26.83;16.13;;;;;;;8.35;70.99;101388.44;5058364;28;20377;-82
2020/12/19 02:53:50;;;;;;;22.15;14.20;;;;;;;8.37;71.15;101377.03;5054833;28;20029;-84
2020/12/19 02:56:16;;;;;;;22.08;13.32;;;;;;;8.34;70.94;101376.13;5045293;28;20047;-83
2020/12/19 02:58:43;;;;;;;25.88;15.25;;;;;;;8.30;70.31;101377.91;5044970;28;20025;-83
2020/12/19 03:01:09;;;;;;;25.60;14.73;;;;;;;8.13;71.25;101370.00;5043811;28;20045;-84
2020/12/19 03:03:35;;;;;;;26.00;14.95;;;;;;;8.07;71.47;101370.91;5042304;28;20037;-84
2020/12/19 03:06:02;;;;;;;21.90;14.05;;;;;;;8.21;71.17;101362.06;5041165;28;20029;-84
2020/12/19 03:08:28;;;;;;;27.67;14.50;;;;;;;8.21;70.43;101354.16;5038169;28;20495;-84
2020/12/19 03:10:55;;;;;;;26.15;14.60;;;;;;;8.18;70.55;101356.81;5044682;28;20033;-84
2020/12/19 03:13:21;;;;;;;26.52;15.30;;;;;;;8.16;71.08;101358.56;5044567;28;20063;-84
2020/12/19 03:15:48;;;;;;;26.90;14.73;;;;;;;8.12;70.93;101351.53;5047881;28;20029;-83
2020/12/19 03:18:14;;;;;;;27.23;14.80;;;;;;;8.09;71.10;101349.78;5046793;28;20025;-84
2020/12/19 03:20:40;;;;;;;23.92;14.15;;;;;;;8.10;71.06;101344.50;5042464;28;20037;-84
2020/12/19 03:23:07;;;;;;;25.05;15.30;;;;;;;8.03;71.21;101353.31;5041581;28;20037;-83
2020/12/19 03:25:33;;;;;;;29.27;16.70;;;;;;;8.04;71.52;101347.16;5043154;28;20080;-84
2020/12/19 03:28:00;;;;;;;25.73;15.95;;;;;;;8.02;71.67;101340.97;5044760;28;20025;-83
2020/12/19 03:30:26;;;;;;;24.13;14.60;;;;;;;8.05;71.35;101335.72;5037135;28;20384;-84
2020/12/19 03:32:53;;;;;;;25.77;14.98;;;;;;;8.06;71.81;101339.22;5045121;28;20036;-83
2020/12/19 03:35:21;;;;;;;26.65;14.88;;;;;;;8.06;72.00;101332.19;5044197;28;20116;-84
2020/12/19 03:37:48;;;;;;;25.65;15.85;;;;;;;8.04;71.38;101338.38;5045800;28;20053;-83
2020/12/19 03:40:15;;;;;;;24.75;14.50;;;;;;;8.12;71.18;101336.56;5046826;28;20533;-84
2020/12/19 03:42:41;;;;;;;26.17;13.95;;;;;;;8.13;71.65;101332.19;5043706;28;20469;-84
2020/12/19 03:45:08;;;;;;;23.67;14.50;;;;;;;8.04;72.07;101322.53;5043788;28;20030;-84
2020/12/19 03:47:34;;;;;;;21.75;13.98;;;;;;;8.09;72.56;101320.75;5038444;28;20087;-81
2020/12/19 03:50:03;;;;;;;24.52;14.50;;;;;;;8.07;72.50;101318.13;5042213;28;20022;-84
2020/12/19 03:52:30;;;;;;;27.10;15.10;;;;;;;8.16;72.17;101313.69;5045473;28;20078;-84
2020/12/19 03:54:57;;;;;;;22.27;14.52;;;;;;;8.07;72.37;101306.66;5043426;28;20024;-84
2020/12/19 03:57:23;;;;;;;29.05;14.05;;;;;;;8.17;71.97;101299.63;5035377;28;20361;-84
2020/12/19 03:59:49;;;;;;;25.13;14.40;;;;;;;8.19;72.05;101305.78;5038395;28;20120;-83
2020/12/19 04:02:16;;;;;;;27.38;15.88;;;;;;;8.22;71.64;101288.19;5040525;28;20561;-84
2020/12/19 04:04:42;;;;;;;26.58;14.48;;;;;;;8.30;71.78;101296.06;5043767;28;20036;-81
2020/12/19 04:07:10;;;;;;;24.55;14.15;;;;;;;8.27;71.46;101293.41;5043497;28;20029;-82
2020/12/19 04:09:36;;;;;;;23.83;14.63;;;;;;;8.21;71.87;101294.34;5033012;28;20075;-84
2020/12/19 04:12:03;;;;;;;21.65;12.57;;;;;;;8.12;72.88;101289.06;5044041;28;20025;-83
2020/12/19 04:14:44;;;;;;;22.63;14.32;;;;;;;8.10;72.74;101286.44;5044244;28;20127;-84
2020/12/19 04:17:12;;;;;;;21.13;12.60;;;;;;;8.14;72.79;101270.56;5044533;28;20455;-84
2020/12/19 04:19:40;;;;;;;25.30;13.40;;;;;;;8.15;72.18;101273.22;5043988;28;20025;-84
2020/12/19 04:22:06;;;;;;;23.48;13.18;;;;;;;8.13;73.10;101269.72;5044870;28;20654;-82
2020/12/19 04:24:33;;;;;;;24.33;13.07;;;;;;;8.31;71.90;101266.16;5044007;28;20087;-84
2020/12/19 04:27:01;;;;;;;21.50;12.43;;;;;;;8.33;71.87;101261.72;5041523;28;20048;-84
2020/12/19 04:29:28;;;;;;;21.55;12.77;;;;;;;8.31;71.69;101265.25;5039189;28;20021;-84
2020/12/19 04:31:55;;;;;;;20.58;13.02;;;;;;;8.33;71.96;101266.13;5044613;28;20486;-84
2020/12/19 04:34:22;;;;;;;22.70;13.70;;;;;;;8.34;72.46;101263.47;5045961;28;20082;-84
2020/12/19 04:36:48;;;;;;;21.83;13.57;;;;;;;8.24;72.93;101256.47;5043435;28;20385;-84
2020/12/19 04:39:15;;;;;;;21.45;13.45;;;;;;;8.39;72.35;101245.84;5043236;28;20033;-84
2020/12/19 04:41:41;;;;;;;21.60;12.73;;;;;;;8.35;72.60;101257.31;5044943;28;20120;-84
2020/12/19 04:44:08;;;;;;;22.20;13.80;;;;;;;8.38;72.37;101251.16;5045237;28;20104;-84
2020/12/19 04:46:40;;;;;;;21.95;12.73;;;;;;;8.40;71.76;101255.53;5043284;28;20035;-84
2020/12/19 04:49:07;;;;;;;21.15;13.10;;;;;;;8.41;71.70;101243.19;5039940;28;20468;-84
2020/12/19 04:51:35;;;;;;;24.77;13.73;;;;;;;8.29;72.91;101244.13;5043489;28;20029;-85
2020/12/19 04:54:02;;;;;;;20.08;12.50;;;;;;;8.36;72.65;101256.44;5044536;28;20085;-84
2020/12/19 04:56:29;;;;;;;24.95;13.32;;;;;;;8.22;73.51;101242.41;5042284;28;20025;-84
2020/12/19 04:59:02;;;;;;;22.45;12.65;;;;;;;8.38;72.98;101232.66;5040571;28;20032;-83
2020/12/19 05:01:28;;;;;;;21.38;13.48;;;;;;;8.42;72.76;101235.28;5036856;28;20116;-83
2020/12/19 05:03:55;;;;;;;20.30;12.27;;;;;;;8.46;73.11;101233.53;5042458;28;20111;-83
2020/12/19 05:06:23;;;;;;;23.40;12.85;;;;;;;8.52;73.20;101230.88;5043434;28;20055;-83
2020/12/19 05:08:51;;;;;;;20.38;12.65;;;;;;;8.51;73.18;101225.56;5041781;28;20116;-83
2020/12/19 05:11:18;;;;;;;20.88;12.65;;;;;;;8.62;73.32;101229.03;5041126;28;20060;-84
2020/12/19 05:13:45;;;;;;;26.75;12.90;;;;;;;8.55;73.32;101224.69;5038294;28;20511;-82
2020/12/19 05:16:13;;;;;;;20.38;12.93;;;;;;;8.66;72.98;101225.50;5041270;28;20162;-83
2020/12/19 05:18:41;;;;;;;17.65;11.52;;;;;;;8.67;72.80;101221.97;5040158;28;20025;-84
2020/12/19 05:21:08;;;;;;;18.95;12.15;;;;;;;8.70;72.46;101224.59;5037794;28;20021;-83
2020/12/19 05:23:35;;;;;;;22.30;13.02;;;;;;;8.77;72.29;101216.63;5041863;28;20072;-84
2020/12/19 05:26:05;;;;;;;21.30;12.40;;;;;;;8.81;72.36;101216.59;5039783;28;20473;-84
2020/12/19 05:28:33;;;;;;;19.95;11.73;;;;;;;8.69;72.08;101220.19;5040228;28;20095;-83
2020/12/19 05:31:00;;;;;;;22.00;11.40;;;;;;;8.82;72.69;101222.75;5040193;28;20025;-83
2020/12/19 05:33:36;;;;;;;18.65;11.40;;;;;;;8.83;72.17;101214.81;5037997;28;20037;-84
2020/12/19 05:36:05;;;;;;;20.05;11.68;;;;;;;8.76;72.74;101212.22;5042296;28;20025;-84
2020/12/19 05:38:36;;;;;;;24.33;12.02;;;;;;;8.80;72.58;101211.31;5041280;28;20025;-84
2020/12/19 05:41:02;;;;;;;22.10;12.77;;;;;;;8.79;73.01;101204.31;5041963;28;20028;-84
2020/12/19 05:43:29;;;;;;;18.35;10.82;;;;;;;8.89;72.23;101205.97;5040702;28;20029;-83
2020/12/19 05:45:56;;;;;;;16.52;11.70;;;;;;;8.92;72.67;101200.66;5042253;28;20071;-84
2020/12/19 05:48:22;;;;;;;20.85;11.93;;;;;;;8.88;72.63;101202.47;5042617;28;20074;-84
2020/12/19 05:50:48;;;;;;;22.48;10.93;;;;;;;8.97;72.01;101198.88;5040210;28;20036;-84
2020/12/19 05:53:17;;;;;;;17.60;11.02;;;;;;;9.02;72.05;101193.53;5039269;28;20036;-84
2020/12/19 05:55:44;;;;;;;20.23;12.20;;;;;;;9.03;71.73;101190.00;5040306;28;20034;-84
2020/12/19 05:58:10;;;;;;;17.65;12.45;;;;;;;8.97;72.11;101196.25;5041132;28;20033;-84
2020/12/19 06:00:37;;;;;;;19.75;11.90;;;;;;;9.12;71.57;101199.63;5040654;28;20029;-84
2020/12/19 06:03:05;;;;;;;16.88;10.40;;;;;;;9.04;71.04;101197.91;5042565;28;20148;-84
2020/12/19 06:05:32;;;;;;;16.83;10.65;;;;;;;9.11;70.69;101196.13;5041136;28;20061;-84
2020/12/19 06:07:59;;;;;;;19.25;11.45;;;;;;;9.12;70.95;101208.47;5041665;28;20369;-84
2020/12/19 06:10:26;;;;;;;17.00;11.48;;;;;;;9.16;71.31;101202.25;5042192;28;20033;-84
2020/12/19 06:13:14;;;;;;;18.58;11.40;;;;;;;9.23;70.83;101203.06;5040878;28;20108;-83
2020/12/19 06:21:20;;;;;;;19.38;10.57;;;;;;;9.15;70.84;101196.97;5074146;28;20466;-81
2020/12/19 06:23:46;;;;;;;19.13;11.50;;;;;;;9.14;71.20;101187.28;5063724;28;20047;-82
2020/12/19 06:26:14;;;;;;;20.42;12.60;;;;;;;9.12;71.48;101192.59;5057874;28;20037;-82
2020/12/19 06:31:23;;;;;;;20.25;11.82;;;;;;;9.23;70.98;101189.84;5102400;27;20433;-82
2020/12/19 06:33:51;;;;;;;17.98;11.75;;;;;;;9.26;71.10;101189.81;5108203;28;20036;-82
2020/12/19 06:44:32;;;;;;;19.70;12.32;;;;;;;9.17;71.97;101187.25;5109098;27;20362;-81
2020/12/19 06:47:00;;;;;;;24.10;13.23;;;;;;;9.14;72.38;101182.00;5098634;28;20125;-83
2020/12/19 06:52:11;;;;;;;20.20;12.68;;;;;;;9.26;71.95;101187.19;5059685;28;20723;-83
2020/12/19 06:57:30;;;;;;;24.42;12.98;;;;;;;9.41;71.88;101185.25;5066589;27;20491;-82
2020/12/19 07:00:30;;;;;;;23.98;14.02;;;;;;;9.43;71.54;101178.22;5041726;28;20055;-82
2020/12/19 07:03:01;;;;;;;20.92;12.93;;;;;;;9.32;72.15;101178.31;5046205;28;20037;-82
2020/12/19 07:05:29;;;;;;;20.80;13.55;;;;;;;9.48;71.28;101173.75;5044309;28;20040;-82
2020/12/19 07:08:17;;;;;;;21.08;13.13;;;;;;;9.53;71.16;101179.84;5046385;28;20029;-82
2020/12/19 07:10:44;;;;;;;29.58;13.75;;;;;;;9.45;71.13;101177.28;5043439;28;20035;-82
2020/12/19 07:13:10;;;;;;;26.20;14.30;;;;;;;9.52;70.65;101178.09;5046328;28;20120;-82
2020/12/19 07:15:52;;;;;;;22.40;13.10;;;;;;;9.44;70.66;101178.19;5046649;28;20465;-82
2020/12/19 07:18:37;;;;;;;22.40;12.67;;;;;;;9.36;71.09;101180.91;5047293;28;20405;-82
2020/12/19 07:21:07;;;;;;;24.05;14.32;;;;;;;9.26;71.05;101171.31;5045710;28;20171;-81
2020/12/19 07:23:36;;;;;;;23.67;13.07;;;;;;;9.26;71.34;101166.03;5046371;28;20017;-83
2020/12/19 07:26:05;;;;;;;24.95;14.48;;;;;;;9.19;71.18;101159.91;5044290;28;20034;-83
2020/12/19 07:28:31;;;;;;;23.40;13.15;;;;;;;9.05;71.91;101159.16;5042579;28;20115;-82
2020/12/19 07:30:57;;;;;;;28.63;15.25;;;;;;;9.11;71.33;101167.03;5039218;28;20559;-82
2020/12/19 07:33:24;;;;;;;21.98;12.88;;;;;;;9.09;71.31;101162.66;5046640;28;20033;-82
2020/12/19 07:35:50;;;;;;;22.48;13.52;;;;;;;9.17;71.45;101166.09;5043421;28;20526;-82
2020/12/19 07:38:20;;;;;;;29.65;15.50;;;;;;;9.27;71.08;101167.78;5046655;28;20484;-83
2020/12/19 07:40:56;;;;;;;25.75;14.55;;;;;;;9.27;71.24;101175.72;5048464;28;20036;-80
2020/12/19 07:43:23;;;;;;;25.95;15.45;;;;;;;9.28;70.88;101173.94;5042163;28;20071;-83
2020/12/19 07:45:57;;;;;;;26.95;14.65;;;;;;;9.30;71.29;101166.88;5040416;28;20025;-83
2020/12/19 07:48:24;;;;;;;27.40;15.80;;;;;;;9.24;71.53;101173.09;5044190;28;20566;-82
2020/12/19 07:50:50;;;;;;;23.25;14.45;;;;;;;9.32;70.96;101178.31;5045088;28;20079;-83
2020/12/19 07:53:16;;;;;;;27.05;15.52;;;;;;;9.31;71.01;101180.09;5045401;28;20484;-80
2020/12/19 07:55:50;;;;;;;26.10;14.25;;;;;;;9.41;71.09;101172.94;5040893;28;20043;-83
2020/12/19 07:58:20;;;;;;;24.98;15.07;;;;;;;9.37;71.42;101169.44;5037905;28;20037;-84
2020/12/19 08:00:46;;;;;;;24.60;14.60;;;;;;;9.38;71.35;101160.63;5040952;22;20041;-81
2020/12/19 08:03:12;;;;;;;20.67;13.25;;;;;;;9.46;71.08;101167.59;5026014;28;20030;-83
2020/12/19 08:05:41;;;;;;;26.95;14.70;;;;;;;9.44;71.14;101177.31;5012883;28;20715;-84
2020/12/19 08:08:10;;;;;;;23.67;14.45;;;;;;;9.41;71.00;101170.28;5017689;28;20064;-81
2020/12/19 08:10:36;;;;;;;26.40;15.82;;;;;;;9.49;71.35;101172.84;5014664;28;20057;-83
2020/12/19 08:13:11;;;;;;;23.05;14.52;;;;;;;9.59;70.87;101176.28;5014205;28;20026;-83
2020/12/19 08:15:41;;;;;;;26.48;16.15;;;;;;;9.50;71.04;101180.75;4995130;28;20105;-83
2020/12/19 08:18:10;;;;;;;24.60;15.93;;;;;;;9.55;71.01;101180.72;4999122;28;20034;-83
2020/12/19 08:20:39;;;;;;;31.30;16.45;;;;;;;9.63;70.85;101184.19;5009724;28;20089;-81
2020/12/19 08:23:08;;;;;;;28.27;15.20;;;;;;;9.51;71.48;101176.38;4999741;28;20038;-82
2020/12/19 08:25:36;;;;;;;23.63;14.48;;;;;;;9.57;71.44;101175.41;5014706;28;20033;-85
2020/12/19 08:28:03;;;;;;;27.35;14.95;;;;;;;9.67;71.09;101167.38;5012635;28;20483;-83
2020/12/19 08:30:31;;;;;;;25.25;14.98;;;;;;;9.60;71.25;101170.97;5014737;28;20034;-82
2020/12/19 08:35:39;;;;;;;26.75;15.95;;;;;;;9.80;70.88;101167.25;5067274;28;20376;-82
2020/12/19 08:41:02;;;;;;;29.50;16.40;;;;;;;9.86;70.89;101161.88;5063076;27;20489;-81
2020/12/19 08:43:39;;;;;;;25.88;14.48;;;;;;;9.81;70.77;101169.84;5060656;28;20025;-81
2020/12/19 08:46:10;;;;;;;27.42;14.98;;;;;;;9.93;71.05;101139.72;5060544;28;20021;-79
2020/12/19 08:48:37;;;;;;;26.60;15.82;;;;;;;10.01;70.83;101147.56;5055737;28;20083;-80
2020/12/19 08:51:14;;;;;;;27.42;16.05;;;;;;;10.06;70.74;101142.22;5059575;28;20049;-79
2020/12/19 08:53:40;;;;;;;28.77;15.18;;;;;;;10.12;70.71;101144.75;5057141;28;20550;-79
2020/12/19 08:58:54;;;;;;;27.25;16.23;;;;;;;10.19;70.63;101133.19;5057651;28;20417;-80
2020/12/19 09:01:20;;;;;;;27.42;15.20;;;;;;;10.28;70.84;101143.69;5038875;28;20040;-80
2020/12/19 09:03:46;;;;;;;24.40;14.93;;;;;;;10.31;70.80;101140.13;5049201;28;20051;-79
2020/12/19 09:06:15;;;;;;;28.08;16.95;;;;;;;10.33;70.95;101144.50;5040319;28;20033;-80
2020/12/19 09:08:44;;;;;;;26.27;15.05;;;;;;;10.54;70.61;101139.78;5018989;28;20099;-81
2020/12/19 09:11:23;;;;;;;29.50;16.50;;;;;;;10.64;70.27;101128.16;5036175;28;20030;-79
2020/12/19 09:13:49;;;;;;;26.30;15.60;;;;;;;10.67;70.81;101140.50;5036675;28;20469;-82
2020/12/19 09:16:16;;;;;;;24.95;14.75;;;;;;;10.76;70.76;101143.00;5036788;28;20037;-81
2020/12/19 09:18:42;;;;;;;25.05;15.07;;;;;;;10.82;70.55;101134.06;5032963;28;20476;-82
2020/12/19 09:21:10;;;;;;;23.83;13.68;;;;;;;10.91;70.67;101141.84;5029765;28;20087;-82
2020/12/19 09:23:37;;;;;;;21.38;13.35;;;;;;;10.94;71.04;101128.56;5029644;28;20071;-82
2020/12/19 09:26:04;;;;;;;26.70;13.40;;;;;;;11.07;70.60;101137.19;5036372;28;20037;-81
2020/12/19 09:28:31;;;;;;;20.67;12.73;;;;;;;11.30;70.04;101135.88;5036941;28;20029;-82
2020/12/19 09:30:58;;;;;;;18.85;11.68;;;;;;;11.30;69.67;101139.44;5036666;28;20120;-81
2020/12/19 09:33:25;;;;;;;18.05;11.68;;;;;;;11.42;69.65;101135.66;5036770;28;20037;-81
2020/12/19 09:35:51;;;;;;;20.85;13.43;;;;;;;11.37;69.71;101123.41;5042714;28;20089;-81
2020/12/19 09:38:18;;;;;;;19.50;12.50;;;;;;;11.39;69.71;101125.13;5035724;28;20040;-84
2020/12/19 09:40:44;;;;;;;18.20;10.80;;;;;;;11.43;69.05;101126.81;5038399;28;20435;-81
2020/12/19 09:43:11;;;;;;;21.40;11.60;;;;;;;11.49;69.11;101129.34;5038307;28;20125;-82
2020/12/19 09:45:37;;;;;;;16.95;10.80;;;;;;;11.54;69.07;101142.53;5038471;28;20064;-81
2020/12/19 09:48:05;;;;;;;42.60;24.33;;;;;;;11.58;69.09;101138.03;5039694;28;20413;-82
2020/12/19 09:50:32;;;;;;;18.98;11.85;;;;;;;11.68;68.80;101144.91;5035401;28;20034;-81
2020/12/19 09:52:58;;;;;;;12.43;9.07;;;;;;;11.70;68.91;101143.09;5038086;28;20091;-81
2020/12/19 09:55:27;;;;;;;14.57;8.60;;;;;;;11.82;68.45;101134.91;5034474;28;20038;-81
2020/12/19 09:57:54;;;;;;;13.52;8.23;;;;;;;11.90;68.61;101131.19;5037563;28;20037;-83
2020/12/19 10:00:20;;;;;;;14.38;8.65;;;;;;;12.05;67.64;101138.88;5040712;28;20030;-81
2020/12/19 10:02:48;;;;;;;14.88;9.27;;;;;;;11.89;67.64;101129.47;5036552;28;20543;-82
2020/12/19 10:05:15;;;;;;;15.00;9.95;;;;;;;12.01;67.98;101128.34;5038217;28;20025;-81
2020/12/19 10:07:41;;;;;;;13.05;8.82;;;;;;;12.14;67.55;101122.72;5041401;28;20447;-81
2020/12/19 10:10:07;;;;;;;14.18;8.75;;;;;;;12.21;67.06;101115.50;5024964;28;20388;-81
2020/12/19 10:12:34;;;;;;;12.65;8.77;;;;;;;12.23;67.12;101108.38;5025860;28;20021;-80
2020/12/19 10:15:01;;;;;;;14.05;8.93;;;;;;;12.23;67.26;101097.75;5035276;28;20033;-82
2020/12/19 10:17:27;;;;;;;17.52;9.15;;;;;;;12.19;67.07;101105.84;5025162;28;20033;-81
2020/12/19 10:19:53;;;;;;;15.00;8.60;;;;;;;12.27;67.11;101101.19;5026697;28;20087;-80
2020/12/19 10:22:20;;;;;;;13.38;8.18;;;;;;;12.38;66.60;101106.28;5029130;28;20032;-83
2020/12/19 10:24:46;;;;;;;15.40;7.75;;;;;;;12.36;67.17;101094.81;5033609;28;20477;-84
2020/12/19 10:27:12;;;;;;;13.20;8.15;;;;;;;12.38;66.59;101100.97;5028165;28;20044;-83
2020/12/19 10:29:40;;;;;;;11.43;7.55;;;;;;;12.38;66.56;101085.03;5026734;28;20092;-81
2020/12/19 10:32:08;;;;;;;11.63;7.63;;;;;;;12.41;66.36;101095.56;5027463;28;20040;-83
2020/12/19 10:34:34;;;;;;;10.40;7.65;;;;;;;12.46;66.42;101088.34;5025798;28;20033;-83
2020/12/19 10:37:01;;;;;;;17.63;10.43;;;;;;;12.39;66.04;101079.66;5021314;28;20454;-78
2020/12/19 10:39:28;;;;;;;12.30;7.80;;;;;;;12.43;65.72;101072.50;5020534;28;20041;-85
2020/12/19 10:41:54;;;;;;;11.43;7.38;;;;;;;12.40;66.10;101078.75;5030334;28;20405;-81
2020/12/19 10:44:20;;;;;;;10.90;7.28;;;;;;;12.44;65.66;101079.56;5024188;28;20113;-80
2020/12/19 10:46:46;;;;;;;14.13;7.78;;;;;;;12.63;65.73;101095.94;5026899;28;20473;-80
2020/12/19 10:49:12;;;;;;;10.73;6.70;;;;;;;12.64;65.97;101078.22;5027489;28;21408;-79
2020/12/19 10:51:40;;;;;;;11.68;7.85;;;;;;;12.68;65.06;101079.88;5030037;28;20026;-82
2020/12/19 10:54:06;;;;;;;30.70;8.00;;;;;;;12.71;65.29;101098.38;5022678;28;20026;-80
2020/12/19 10:56:32;;;;;;;17.17;6.25;;;;;;;12.74;65.82;101099.19;5019543;28;20425;-80
2020/12/19 10:58:58;;;;;;;16.10;8.10;;;;;;;12.78;65.63;101095.56;5019436;28;20112;-81
2020/12/19 11:01:24;;;;;;;10.95;7.05;;;;;;;12.82;65.08;101101.66;5021600;28;20048;-80
2020/12/19 11:03:51;;;;;;;10.10;5.95;;;;;;;12.85;65.21;101095.41;5024771;28;20024;-81
2020/12/19 11:06:23;;;;;;;10.23;6.18;;;;;;;12.82;65.53;101093.66;5022070;28;20033;-80
2020/12/19 11:08:50;;;;;;;10.88;6.07;;;;;;;12.90;64.50;101097.00;5025821;28;20082;-80
2020/12/19 11:11:17;;;;;;;13.05;6.05;;;;;;;12.86;65.11;101103.34;5019304;28;20366;-79
2020/12/19 11:13:44;;;;;;;8.00;5.20;;;;;;;12.86;64.75;101090.03;5022868;28;20123;-80
2020/12/19 11:16:19;;;;;;;10.45;5.50;;;;;;;12.91;64.75;101085.47;5016821;28;20492;-78
2020/12/19 11:18:45;;;;;;;8.23;5.07;;;;;;;12.98;64.22;101086.19;5017917;28;20477;-79
2020/12/19 11:21:11;;;;;;;19.17;11.98;;;;;;;13.04;64.22;101080.69;5024275;28;20053;-80
2020/12/19 11:23:39;;;;;;;14.18;8.68;;;;;;;13.05;64.54;101084.25;5026402;28;20112;-82
2020/12/19 11:26:05;;;;;;;12.82;5.88;;;;;;;13.01;63.98;101079.91;5024699;28;20022;-80
2020/12/19 11:28:31;;;;;;;8.40;5.55;;;;;;;13.16;64.09;101079.50;5020138;28;20110;-83
2020/12/19 11:30:57;;;;;;;9.02;5.07;;;;;;;12.97;64.02;101081.75;5018822;28;20078;-81
2020/12/19 11:33:23;;;;;;;6.97;5.35;;;;;;;13.10;63.54;101080.53;5023946;28;20487;-80
2020/12/19 11:35:49;;;;;;;8.98;5.43;;;;;;;13.15;63.64;101072.44;5029657;28;20026;-81
2020/12/19 11:38:15;;;;;;;8.10;4.57;;;;;;;13.13;63.68;101071.59;5023506;28;20034;-81
2020/12/19 11:40:42;;;;;;;9.38;5.15;;;;;;;13.14;63.79;101067.16;5029511;28;20030;-80
2020/12/19 11:43:08;;;;;;;8.25;5.05;;;;;;;13.22;63.38;101068.69;5027298;28;20032;-79
2020/12/19 11:45:34;;;;;;;6.70;4.47;;;;;;;13.16;63.33;101066.22;5029947;28;20040;-80
2020/12/19 11:48:00;;;;;;;9.27;5.03;;;;;;;13.32;62.86;101071.09;5024389;28;20021;-80
2020/12/19 11:50:27;;;;;;;9.13;4.72;;;;;;;13.18;63.06;101072.34;5022853;28;20509;-80
2020/12/19 11:52:53;;;;;;;6.10;4.57;;;;;;;13.31;63.32;101070.22;5018938;28;20432;-81